Skip Navigation

Christman Field Latest Observations

Switch to english unitsOther observation timesWeekly graphs

Date Time
MST
Temp
°C
RH
%
DewPt
°C
Wind
m/s
Dir
°
Gust
m/s
Dir
°
Press
hPa
Solar
W/m^2
Prec
mm
2018-12-17 02:20 -2.5 59.2 -9.4 0.9 300 1.5 298 845.14 0.0 0.00
2018-12-17 02:15 -1.6 60.6 -8.3 0.3 321 1.0 322 845.22 0.0 0.00
2018-12-17 02:10 -1.0 56.8 -8.5 1.1 322 1.4 329 845.29 0.0 0.00
2018-12-17 02:05 -0.2 52.5 -8.8 1.4 332 1.7 338 845.35 0.0 0.00
2018-12-17 02:00 -0.2 52.2 -8.8 1.4 335 1.9 337 845.37 0.0 0.00
2018-12-17 01:55 -1.5 57.6 -8.7 0.1 278 0.3 278 845.48 0.0 0.00
2018-12-17 01:50 -2.1 61.9 -8.5 0.0 278 0.0 278 845.59 0.0 0.00
2018-12-17 01:45 -2.6 70.5 -7.2 0.0 278 0.0 278 845.86 0.0 0.00
2018-12-17 01:40 -0.5 58.8 -7.6 0.7 278 1.1 278 845.83 0.0 0.00
2018-12-17 01:35 -1.5 66.3 -7.0 0.8 270 1.1 267 845.83 0.0 0.00
2018-12-17 01:30 -1.4 72.2 -5.7 0.5 266 0.9 266 845.86 0.0 0.00
2018-12-17 01:25 -2.9 72.0 -7.2 0.3 266 0.9 266 845.85 0.0 0.00
2018-12-17 01:20 -4.3 68.6 -9.2 0.0 312 0.0 312 845.74 0.0 0.00
2018-12-17 01:15 -2.4 65.0 -8.1 0.0 312 0.0 313 845.74 0.0 0.00
2018-12-17 01:10 -1.8 58.4 -8.9 0.0 313 0.0 314 845.99 0.0 0.00
2018-12-17 01:05 -2.5 61.7 -8.9 0.0 314 0.0 313 845.87 0.0 0.00
2018-12-17 01:00 -1.8 60.7 -8.4 0.0 313 0.4 314 845.74 0.0 0.00
2018-12-17 00:55 -3.1 62.8 -9.2 0.9 314 1.3 313 845.76 0.0 0.00
2018-12-17 00:50 -0.7 57.3 -8.1 1.2 314 1.6 333 845.82 0.0 0.00
2018-12-17 00:45 0.4 50.3 -8.8 1.3 333 1.6 333 845.82 0.0 0.00
2018-12-17 00:40 -0.9 53.5 -9.1 1.2 314 1.4 294 845.80 0.0 0.00
2018-12-17 00:35 -0.4 55.6 -8.2 0.2 294 1.4 294 845.85 0.0 0.00
2018-12-17 00:30 -0.0 52.2 -8.7 0.1 235 0.5 235 845.94 0.0 0.00
2018-12-17 00:25 -0.4 53.9 -8.6 0.0 235 0.3 149 845.94 0.0 0.00
2018-12-17 00:20 -1.4 55.0 -9.3 0.2 137 0.7 137 845.96 0.0 0.00
2018-12-17 00:15 -2.5 60.5 -9.1 0.8 137 1.0 137 845.96 0.0 0.00
2018-12-17 00:10 -2.4 61.4 -8.8 1.4 135 2.1 138 846.04 0.0 0.00
2018-12-17 00:05 -2.4 62.5 -8.6 2.0 125 2.3 139 846.11 0.0 0.00
2018-12-17 00:00 -1.9 60.7 -8.5 1.3 148 2.1 147 846.02 0.0 0.00
2018-12-16 23:55 -1.3 59.4 -8.2 0.0 231 0.0 231 846.03 0.0 0.00